createdAt,value
2019-04-30T00:00:18.475Z,5.80
2019-04-30T00:02:55.221Z,4.50
2019-04-30T00:05:25.094Z,5.00
2019-04-30T00:07:58.458Z,4.60
2019-04-30T00:10:36.095Z,5.13
2019-04-30T00:12:58.671Z,4.00
2019-04-30T00:15:28.055Z,5.83
2019-04-30T00:17:58.679Z,4.27
2019-04-30T00:20:30.098Z,6.40
2019-04-30T00:22:58.147Z,6.20
2019-04-30T00:25:28.663Z,5.93
2019-04-30T00:28:00.291Z,4.30
2019-04-30T00:30:28.559Z,9.07
2019-04-30T00:32:57.367Z,5.67
2019-04-30T00:35:26.361Z,5.33
2019-04-30T00:37:57.550Z,5.27
2019-04-30T00:40:29.793Z,6.63
2019-04-30T00:43:00.105Z,4.60
2019-04-30T00:45:27.324Z,5.37
2019-04-30T00:47:56.156Z,5.03
2019-04-30T00:50:29.125Z,6.87
2019-04-30T00:52:57.828Z,5.57
2019-04-30T00:55:26.498Z,5.10
2019-04-30T00:57:55.781Z,5.50
2019-04-30T01:00:29.425Z,5.40
2019-04-30T01:03:19.255Z,5.17
2019-04-30T01:05:48.322Z,5.57
2019-04-30T01:08:21.227Z,6.10
2019-04-30T01:10:48.039Z,4.77
2019-04-30T01:13:17.061Z,7.37
2019-04-30T01:15:48.952Z,5.33
2019-04-30T01:18:16.669Z,7.83
2019-04-30T01:20:45.786Z,8.93
2019-04-30T01:23:16.848Z,6.40
2019-04-30T01:25:49.928Z,5.40
2019-04-30T01:28:23.145Z,5.43
2019-04-30T01:30:49.556Z,5.73
2019-04-30T01:33:19.126Z,5.30
2019-04-30T01:35:48.790Z,6.70
2019-04-30T01:38:18.901Z,7.90
2019-04-30T01:40:51.014Z,5.90
2019-04-30T01:43:23.204Z,5.97
2019-04-30T01:45:49.887Z,6.57
2019-04-30T01:48:19.392Z,5.43
2019-04-30T01:50:48.880Z,6.03
2019-04-30T01:53:18.648Z,5.67
2019-04-30T01:56:06.903Z,8.70
2019-04-30T01:58:43.872Z,6.20
2019-04-30T02:01:19.027Z,7.80
2019-04-30T02:03:48.708Z,6.03
2019-04-30T02:06:19.710Z,7.77
2019-04-30T02:08:49.357Z,6.53
2019-04-30T02:11:18.983Z,6.10
2019-04-30T02:13:49.196Z,7.10
2019-04-30T02:16:21.010Z,7.07
2019-04-30T02:18:49.645Z,8.83
2019-04-30T02:21:19.435Z,10.00
2019-04-30T02:23:49.333Z,10.17
2019-04-30T02:26:18.818Z,7.93
2019-04-30T02:28:49.497Z,9.50
2019-04-30T02:31:19.330Z,9.17
2019-04-30T02:33:51.525Z,9.37
2019-04-30T02:36:54.591Z,15.43
2019-04-30T02:39:23.545Z,12.17
2019-04-30T02:41:53.180Z,12.33
2019-04-30T02:44:24.065Z,14.03
2019-04-30T02:46:55.474Z,10.70
2019-04-30T02:49:26.188Z,12.63
2019-04-30T02:51:59.387Z,13.40
2019-04-30T02:54:30.199Z,14.03
2019-04-30T02:57:11.289Z,11.40
2019-04-30T03:00:00.005Z,15.00
2019-04-30T03:02:29.914Z,13.67
2019-04-30T03:05:00.250Z,15.23
2019-04-30T03:07:29.695Z,14.07
2019-04-30T03:09:59.769Z,18.70
2019-04-30T03:12:30.625Z,14.93
2019-04-30T03:15:00.375Z,14.07
2019-04-30T03:17:36.266Z,15.37
2019-04-30T03:20:35.543Z,15.27
2019-04-30T03:23:02.027Z,17.17
2019-04-30T03:25:29.827Z,13.43
2019-04-30T03:28:00.267Z,17.70
2019-04-30T03:30:31.995Z,17.20
2019-04-30T03:33:02.591Z,17.40
2019-04-30T03:35:32.296Z,14.83
2019-04-30T03:38:01.322Z,17.20
2019-04-30T03:40:30.320Z,17.93
2019-04-30T03:43:02.978Z,16.40
2019-04-30T03:45:30.232Z,13.70
2019-04-30T03:48:00.276Z,16.90
2019-04-30T03:50:41.528Z,14.40
2019-04-30T03:53:00.602Z,15.30
2019-04-30T03:55:30.051Z,16.97
2019-04-30T03:58:00.195Z,17.20
2019-04-30T04:00:46.733Z,17.27
2019-04-30T04:03:15.843Z,16.47
2019-04-30T04:05:52.598Z,21.47
2019-04-30T04:08:29.360Z,15.77
2019-04-30T04:11:13.639Z,15.70
2019-04-30T04:13:42.477Z,17.00
2019-04-30T04:16:11.521Z,15.30
2019-04-30T04:18:40.414Z,19.43
2019-04-30T04:21:16.305Z,20.20
2019-04-30T04:23:40.115Z,17.00
2019-04-30T04:26:09.488Z,16.77
2019-04-30T04:28:43.097Z,15.70
2019-04-30T04:31:09.621Z,17.90
2019-04-30T04:33:39.586Z,16.47
2019-04-30T04:36:09.249Z,13.80
2019-04-30T04:38:40.343Z,18.50
2019-04-30T04:41:10.284Z,15.13
2019-04-30T04:43:40.182Z,17.30
2019-04-30T04:46:09.433Z,14.13
2019-04-30T04:48:39.409Z,16.33
2019-04-30T04:51:19.857Z,16.67
2019-04-30T04:53:40.394Z,24.17
2019-04-30T04:56:10.083Z,17.30
2019-04-30T04:58:40.192Z,18.70
2019-04-30T05:01:11.924Z,17.50
2019-04-30T05:03:40.501Z,15.17
2019-04-30T05:06:11.583Z,17.57
2019-04-30T05:08:40.090Z,16.63
2019-04-30T05:11:09.592Z,21.43
2019-04-30T05:13:38.997Z,17.47
2019-04-30T05:16:09.189Z,17.83
2019-04-30T05:18:39.102Z,16.67
2019-04-30T05:21:08.828Z,19.87
2019-04-30T05:23:41.096Z,19.77
2019-04-30T05:26:10.952Z,22.53
2019-04-30T05:28:39.490Z,17.10
2019-04-30T05:31:08.793Z,17.17
2019-04-30T05:33:39.033Z,22.63
2019-04-30T05:36:09.355Z,22.10
2019-04-30T05:38:39.176Z,18.80
2019-04-30T05:41:09.353Z,17.10
2019-04-30T05:43:38.752Z,23.10
2019-04-30T05:46:08.330Z,17.80
2019-04-30T05:48:39.721Z,19.43
2019-04-30T05:51:09.019Z,16.73
2019-04-30T05:53:39.380Z,16.33
2019-04-30T05:56:09.409Z,23.90
2019-04-30T05:58:39.769Z,17.80
2019-04-30T06:01:09.666Z,20.03
2019-04-30T06:03:39.106Z,18.00
2019-04-30T06:06:08.811Z,22.10
2019-04-30T06:08:49.056Z,18.87
2019-04-30T06:11:39.241Z,19.70
2019-04-30T06:14:22.563Z,19.43
2019-04-30T06:17:12.734Z,17.50
2019-04-30T06:19:41.751Z,20.20
2019-04-30T06:22:11.169Z,18.10
2019-04-30T06:24:40.609Z,16.33
2019-04-30T06:27:10.836Z,19.87
2019-04-30T06:29:40.643Z,17.90
2019-04-30T06:32:09.678Z,18.10
2019-04-30T06:34:41.928Z,19.23
2019-04-30T06:37:09.936Z,17.43
2019-04-30T06:39:38.917Z,22.13
2019-04-30T06:42:12.648Z,19.53
2019-04-30T06:44:41.894Z,18.57
2019-04-30T06:47:10.442Z,23.83
2019-04-30T06:49:39.453Z,15.90
2019-04-30T06:52:18.208Z,20.43
2019-04-30T06:54:39.738Z,20.70
2019-04-30T06:57:09.765Z,18.50
2019-04-30T06:59:39.722Z,18.93
2019-04-30T07:02:09.319Z,20.10
2019-04-30T07:04:40.066Z,18.50
2019-04-30T07:07:09.262Z,17.43
2019-04-30T07:09:52.727Z,18.80
2019-04-30T07:12:27.789Z,18.60
2019-04-30T07:14:55.687Z,17.20
2019-04-30T07:17:24.538Z,20.63
2019-04-30T07:19:56.811Z,18.17
2019-04-30T07:22:37.618Z,20.47
2019-04-30T07:24:54.769Z,18.53
2019-04-30T07:27:24.345Z,15.40
2019-04-30T07:29:53.298Z,19.10
2019-04-30T07:32:22.125Z,17.43
2019-04-30T07:34:51.014Z,22.03
2019-04-30T07:37:24.197Z,19.97
2019-04-30T07:39:50.393Z,17.27
2019-04-30T07:42:19.396Z,18.67
2019-04-30T07:44:50.245Z,18.00
2019-04-30T07:47:19.694Z,19.47
2019-04-30T07:49:52.919Z,18.57
2019-04-30T07:52:21.550Z,17.50
2019-04-30T07:55:09.873Z,18.53
2019-04-30T07:57:40.385Z,21.63
2019-04-30T08:00:10.240Z,22.73
2019-04-30T08:02:44.589Z,19.13
2019-04-30T08:05:22.742Z,15.87
2019-04-30T08:07:51.630Z,17.33
2019-04-30T08:10:20.649Z,17.93
2019-04-30T08:12:50.812Z,17.17
2019-04-30T08:15:20.163Z,19.80
2019-04-30T08:18:02.224Z,26.23
2019-04-30T08:20:19.808Z,23.67
2019-04-30T08:22:49.393Z,19.60
2019-04-30T08:25:19.811Z,20.33
2019-04-30T08:27:49.452Z,20.40
2019-04-30T08:30:26.273Z,19.53
2019-04-30T08:33:09.465Z,20.87
2019-04-30T08:35:39.808Z,21.80
2019-04-30T08:38:10.565Z,18.50
2019-04-30T08:40:52.816Z,16.93
2019-04-30T08:43:10.187Z,23.37
2019-04-30T08:45:39.179Z,16.73
2019-04-30T08:48:09.075Z,21.33
2019-04-30T08:50:39.546Z,17.97
2019-04-30T08:53:10.909Z,17.90
2019-04-30T08:55:39.465Z,17.70
2019-04-30T08:58:13.743Z,20.77
2019-04-30T09:00:39.173Z,23.23
2019-04-30T09:03:09.388Z,16.67
2019-04-30T09:06:00.571Z,19.43
2019-04-30T09:08:29.555Z,16.60
2019-04-30T09:10:59.521Z,19.93
2019-04-30T09:13:28.833Z,20.50
2019-04-30T09:15:59.300Z,18.90
2019-04-30T09:18:29.158Z,20.33
2019-04-30T09:21:06.065Z,19.53
2019-04-30T09:23:42.977Z,18.50
2019-04-30T09:25:59.574Z,25.93
2019-04-30T09:28:29.438Z,19.70
2019-04-30T09:30:58.801Z,24.40
2019-04-30T09:33:29.433Z,18.80
2019-04-30T09:35:59.541Z,21.80
2019-04-30T09:38:29.079Z,17.07
2019-04-30T09:40:59.422Z,19.90
2019-04-30T09:43:28.719Z,19.20
2019-04-30T09:45:59.275Z,19.57
2019-04-30T09:48:30.329Z,21.50
2019-04-30T09:51:00.814Z,19.63
2019-04-30T09:53:30.483Z,20.33
2019-04-30T09:55:59.774Z,18.77
2019-04-30T09:58:29.953Z,20.90
2019-04-30T10:00:59.390Z,21.23
2019-04-30T10:03:30.876Z,21.87
2019-04-30T10:05:59.176Z,18.83
2019-04-30T10:08:30.547Z,25.00
2019-04-30T10:11:36.290Z,18.80
2019-04-30T10:14:05.389Z,20.10
2019-04-30T10:16:52.707Z,24.80
2019-04-30T10:19:21.676Z,23.40
2019-04-30T10:21:50.486Z,19.23
2019-04-30T10:24:19.849Z,24.23
2019-04-30T10:26:48.818Z,17.97
2019-04-30T10:29:18.314Z,17.83
2019-04-30T10:31:48.929Z,23.93
2019-04-30T10:34:17.918Z,20.13
2019-04-30T10:36:49.339Z,18.93
2019-04-30T10:39:21.402Z,20.23
2019-04-30T10:41:48.409Z,19.87
2019-04-30T10:44:18.803Z,22.50
2019-04-30T10:46:47.922Z,24.70
2019-04-30T10:49:18.975Z,20.20
2019-04-30T10:51:47.431Z,22.70
2019-04-30T10:54:24.041Z,19.13
2019-04-30T10:56:48.997Z,20.33
2019-04-30T10:59:17.550Z,21.10
2019-04-30T11:01:46.472Z,17.40
2019-04-30T11:04:18.366Z,18.47
2019-04-30T11:06:47.454Z,17.27
2019-04-30T11:09:16.361Z,17.90
2019-04-30T11:11:45.931Z,20.37
2019-04-30T11:14:14.919Z,17.97
2019-04-30T11:16:44.072Z,19.97
2019-04-30T11:19:13.309Z,18.77
2019-04-30T11:21:42.794Z,22.40
2019-04-30T11:24:11.981Z,20.30
2019-04-30T11:26:41.872Z,21.57
2019-04-30T11:29:11.709Z,19.33
2019-04-30T11:32:06.009Z,19.53
2019-04-30T11:34:34.966Z,19.20
2019-04-30T11:37:04.159Z,18.43
2019-04-30T11:39:33.200Z,23.07
2019-04-30T11:42:02.281Z,20.70
2019-04-30T11:44:31.696Z,19.10
2019-04-30T11:47:24.348Z,17.77
2019-04-30T11:49:53.804Z,21.43
2019-04-30T11:52:22.935Z,18.97
2019-04-30T11:54:54.464Z,19.60
2019-04-30T11:57:22.672Z,17.93
2019-04-30T11:59:51.678Z,20.90
2019-04-30T12:02:29.506Z,18.63
2019-04-30T12:04:58.502Z,22.30
2019-04-30T12:07:34.286Z,22.97
2019-04-30T12:10:16.845Z,19.13
2019-04-30T12:12:45.681Z,22.83
2019-04-30T12:15:14.868Z,21.73
2019-04-30T12:17:43.715Z,22.87
2019-04-30T12:20:12.990Z,22.07
2019-04-30T12:22:41.846Z,24.33
2019-04-30T12:25:10.925Z,19.53
2019-04-30T12:27:39.864Z,23.43
2019-04-30T12:30:10.033Z,19.83
2019-04-30T12:32:39.306Z,18.97
2019-04-30T12:35:08.719Z,18.70
2019-04-30T12:37:39.066Z,22.80
2019-04-30T12:40:10.852Z,22.27
2019-04-30T12:42:40.135Z,21.93
2019-04-30T12:45:10.102Z,19.87
2019-04-30T12:47:43.233Z,18.40
2019-04-30T12:50:32.338Z,22.47
2019-04-30T12:53:04.772Z,21.83
2019-04-30T12:55:55.458Z,22.00
2019-04-30T12:58:24.740Z,21.50
2019-04-30T13:00:53.757Z,21.40
2019-04-30T13:03:22.599Z,21.33
2019-04-30T13:05:52.123Z,22.00
2019-04-30T13:08:22.206Z,19.23
2019-04-30T13:10:52.317Z,22.57
2019-04-30T13:13:22.223Z,20.87
2019-04-30T13:15:51.569Z,19.30
2019-04-30T13:18:20.494Z,19.33
2019-04-30T13:20:49.516Z,23.67
2019-04-30T13:23:18.758Z,18.97
2019-04-30T13:25:51.196Z,24.63
2019-04-30T13:28:20.826Z,20.77
2019-04-30T13:30:49.728Z,20.20
2019-04-30T13:33:30.301Z,20.40
2019-04-30T13:35:59.171Z,21.03
2019-04-30T13:38:50.150Z,24.87
2019-04-30T13:41:36.037Z,22.20
2019-04-30T13:44:07.253Z,21.20
2019-04-30T13:46:36.277Z,20.20
2019-04-30T13:49:05.395Z,19.67
2019-04-30T13:51:34.408Z,17.03
2019-04-30T13:54:03.319Z,24.03
2019-04-30T13:56:32.285Z,18.63
2019-04-30T13:59:01.122Z,24.43
2019-04-30T14:01:30.006Z,18.30
2019-04-30T14:04:08.876Z,22.30
2019-04-30T14:06:43.529Z,20.67
2019-04-30T14:09:19.553Z,20.97
2019-04-30T14:11:48.402Z,20.77
2019-04-30T14:14:18.406Z,19.17
2019-04-30T14:16:48.293Z,17.80
2019-04-30T14:19:17.285Z,17.40
2019-04-30T14:21:46.273Z,18.37
2019-04-30T14:24:15.253Z,16.03
2019-04-30T14:26:44.162Z,14.00
2019-04-30T14:29:13.127Z,13.80
2019-04-30T14:31:42.139Z,13.70
2019-04-30T14:34:11.101Z,14.00
2019-04-30T14:36:40.058Z,14.40
2019-04-30T14:39:16.173Z,12.70
2019-04-30T14:41:41.014Z,15.20
2019-04-30T14:44:15.485Z,15.63
2019-04-30T14:46:52.807Z,12.43
2019-04-30T14:49:39.917Z,12.50
2019-04-30T14:52:09.492Z,13.20
2019-04-30T14:54:56.184Z,12.20
2019-04-30T14:57:42.329Z,16.17
2019-04-30T15:00:33.097Z,12.30
2019-04-30T15:03:09.344Z,13.50
2019-04-30T15:05:43.831Z,10.23
2019-04-30T15:08:08.961Z,11.97
2019-04-30T15:10:37.907Z,15.33
2019-04-30T15:13:06.968Z,12.73
2019-04-30T15:15:36.082Z,11.30
2019-04-30T15:18:05.466Z,17.27
2019-04-30T15:20:34.560Z,14.10
2019-04-30T15:23:19.021Z,11.40
2019-04-30T15:25:42.729Z,12.60
2019-04-30T15:28:11.834Z,12.20
2019-04-30T15:30:42.096Z,11.63
2019-04-30T15:33:21.867Z,11.90
2019-04-30T15:35:50.765Z,11.80
2019-04-30T15:38:21.282Z,13.50
2019-04-30T15:40:50.145Z,11.57
2019-04-30T15:43:19.166Z,13.40
2019-04-30T15:45:49.384Z,14.23
2019-04-30T15:48:19.657Z,12.73
2019-04-30T15:50:49.317Z,16.37
2019-04-30T15:53:19.395Z,16.23
2019-04-30T15:55:48.555Z,11.00
2019-04-30T15:58:22.454Z,13.70
2019-04-30T16:00:51.515Z,16.50
2019-04-30T16:03:25.286Z,11.90
2019-04-30T16:05:54.292Z,13.40
2019-04-30T16:08:33.917Z,13.70
2019-04-30T16:11:12.546Z,13.70
2019-04-30T16:14:18.940Z,13.73
2019-04-30T16:17:07.910Z,13.90
2019-04-30T16:19:36.953Z,16.20
2019-04-30T16:22:06.651Z,12.57
2019-04-30T16:24:35.561Z,13.23
2019-04-30T16:27:04.876Z,13.53
2019-04-30T16:29:33.901Z,16.03
2019-04-30T16:32:02.970Z,12.43
2019-04-30T16:34:31.914Z,15.00
2019-04-30T16:39:41.237Z,16.27
2019-04-30T16:42:10.087Z,17.10
2019-04-30T16:44:39.026Z,12.07
2019-04-30T16:47:15.461Z,11.40
2019-04-30T16:49:39.005Z,10.90
2019-04-30T16:52:09.146Z,13.87
2019-04-30T16:54:39.545Z,11.07
2019-04-30T16:57:10.234Z,12.63
2019-04-30T16:59:41.744Z,9.97
2019-04-30T17:02:12.102Z,10.43
2019-04-30T17:04:49.817Z,12.83
2019-04-30T17:07:46.886Z,10.20
2019-04-30T17:10:39.387Z,13.33
2019-04-30T17:13:20.953Z,10.53
2019-04-30T17:15:51.298Z,13.70
2019-04-30T17:18:20.160Z,11.10
2019-04-30T17:20:49.306Z,13.60
2019-04-30T17:23:19.352Z,14.50
2019-04-30T17:25:48.583Z,11.70
2019-04-30T17:28:18.828Z,16.03
2019-04-30T17:30:49.156Z,13.57
2019-04-30T17:33:18.318Z,12.03
2019-04-30T17:35:47.438Z,10.90
2019-04-30T17:38:16.662Z,15.10
2019-04-30T17:40:45.604Z,11.37
2019-04-30T17:43:14.643Z,12.87
2019-04-30T17:45:43.596Z,17.80
2019-04-30T17:48:12.478Z,11.93
2019-04-30T17:50:41.466Z,14.37
2019-04-30T17:53:10.458Z,15.47
2019-04-30T17:55:39.829Z,14.43
2019-04-30T17:58:10.575Z,13.47
2019-04-30T18:00:42.679Z,15.20
2019-04-30T18:03:11.746Z,17.47
2019-04-30T18:05:40.778Z,14.60
2019-04-30T18:08:09.819Z,15.60
2019-04-30T18:10:39.517Z,16.63
2019-04-30T18:13:08.501Z,14.90
2019-04-30T18:15:37.508Z,20.23
2019-04-30T18:18:12.730Z,17.60
2019-04-30T18:20:56.962Z,16.20
2019-04-30T18:23:45.599Z,18.10
2019-04-30T18:26:15.740Z,21.83
2019-04-30T18:28:44.626Z,16.30
2019-04-30T18:31:13.774Z,16.17
2019-04-30T18:33:42.842Z,16.23
2019-04-30T18:36:11.775Z,16.97
2019-04-30T18:38:40.706Z,16.80
2019-04-30T18:41:09.686Z,16.80
2019-04-30T18:43:40.554Z,16.70
2019-04-30T18:46:10.815Z,16.10
2019-04-30T18:48:40.275Z,18.10
2019-04-30T18:51:29.824Z,19.90
2019-04-30T18:53:39.988Z,16.37
2019-04-30T18:56:14.489Z,17.60
2019-04-30T18:58:42.914Z,17.10
2019-04-30T19:01:10.876Z,20.53
2019-04-30T19:03:40.196Z,18.03
2019-04-30T19:06:22.919Z,20.03
2019-04-30T19:08:58.456Z,16.03
2019-04-30T19:11:43.406Z,16.13
2019-04-30T19:14:31.494Z,18.90
2019-04-30T19:17:19.448Z,17.67
2019-04-30T19:19:55.582Z,19.70
2019-04-30T19:22:24.484Z,20.00
2019-04-30T19:24:58.606Z,18.63
2019-04-30T19:27:24.207Z,16.10
2019-04-30T19:29:53.250Z,16.77
2019-04-30T19:32:22.401Z,21.60
2019-04-30T19:34:51.347Z,19.63
2019-04-30T19:37:20.590Z,20.43
2019-04-30T19:39:51.063Z,16.83
2019-04-30T19:42:20.165Z,17.53
2019-04-30T19:44:57.138Z,15.80
2019-04-30T19:47:20.022Z,18.10
2019-04-30T19:49:49.071Z,22.13
2019-04-30T19:52:19.210Z,18.70
2019-04-30T19:54:48.763Z,20.93
2019-04-30T19:57:19.156Z,16.97
2019-04-30T19:59:49.210Z,27.83
2019-04-30T20:02:19.462Z,16.50
2019-04-30T20:04:49.226Z,20.80
2019-04-30T20:07:19.508Z,18.70
2019-04-30T20:10:00.286Z,17.70
2019-04-30T20:12:19.408Z,16.90
2019-04-30T20:14:49.591Z,21.40
2019-04-30T20:17:19.495Z,20.53
2019-04-30T20:19:48.981Z,23.97
2019-04-30T20:22:19.602Z,20.43
2019-04-30T20:24:49.191Z,20.50
2019-04-30T20:27:19.024Z,22.63
2019-04-30T20:29:49.326Z,24.23
2019-04-30T20:32:27.464Z,25.93
2019-04-30T20:34:52.870Z,18.47
2019-04-30T20:37:21.749Z,19.13
2019-04-30T20:39:56.133Z,18.83
2019-04-30T20:42:25.095Z,20.03
2019-04-30T20:44:54.012Z,24.57
2019-04-30T20:47:22.949Z,22.40
2019-04-30T20:49:51.893Z,24.57
2019-04-30T20:52:20.896Z,22.10
2019-04-30T20:54:49.821Z,21.03
2019-04-30T20:57:19.936Z,23.67
2019-04-30T20:59:49.230Z,24.60
2019-04-30T21:02:18.776Z,21.93
2019-04-30T21:04:49.099Z,25.07
2019-04-30T21:07:19.519Z,23.37
2019-04-30T21:09:49.066Z,22.90
2019-04-30T21:12:18.743Z,19.77
2019-04-30T21:14:48.576Z,23.47
2019-04-30T21:17:17.550Z,21.97
2019-04-30T21:19:46.462Z,20.00
2019-04-30T21:22:15.531Z,24.27
2019-04-30T21:24:44.452Z,18.30
2019-04-30T21:27:13.464Z,22.00
2019-04-30T21:29:42.442Z,21.37
2019-04-30T21:32:16.744Z,22.20
2019-04-30T21:34:50.745Z,19.23
2019-04-30T21:37:19.780Z,23.40
2019-04-30T21:39:50.130Z,20.60
2019-04-30T21:42:19.346Z,27.37
2019-04-30T21:44:48.194Z,19.93
2019-04-30T21:47:17.275Z,23.77
2019-04-30T21:49:46.226Z,21.90
2019-04-30T21:52:15.245Z,18.93
2019-04-30T21:54:44.317Z,24.20
2019-04-30T21:57:13.211Z,20.00
2019-04-30T21:59:42.482Z,26.07
2019-04-30T22:02:11.830Z,21.30
2019-04-30T22:04:40.779Z,24.47
2019-04-30T22:07:10.034Z,18.20
2019-04-30T22:09:39.062Z,21.77
2019-04-30T22:12:09.229Z,21.43
2019-04-30T22:14:38.222Z,21.27
2019-04-30T22:17:09.105Z,19.17
2019-04-30T22:19:37.678Z,26.67
2019-04-30T22:22:06.577Z,22.30
2019-04-30T22:24:35.405Z,22.30
2019-04-30T22:27:04.457Z,21.07
2019-04-30T22:29:39.312Z,24.03
2019-04-30T22:32:03.926Z,22.87
2019-04-30T22:34:32.767Z,21.83
2019-04-30T22:37:01.792Z,22.90
2019-04-30T22:39:39.564Z,26.93
2019-04-30T22:42:29.841Z,23.53
2019-04-30T22:45:00.011Z,21.60
2019-04-30T22:47:28.928Z,20.90
2019-04-30T22:49:57.815Z,19.83
2019-04-30T22:52:26.902Z,17.70
2019-04-30T22:54:55.878Z,23.00
2019-04-30T22:57:24.748Z,23.27
2019-04-30T22:59:53.689Z,22.57
2019-04-30T23:02:41.053Z,24.17
2019-04-30T23:05:12.126Z,21.90
2019-04-30T23:07:41.154Z,22.87
2019-04-30T23:10:10.259Z,20.30
2019-04-30T23:12:39.275Z,19.67
2019-04-30T23:15:08.533Z,16.73
2019-04-30T23:17:37.514Z,24.90
2019-04-30T23:20:08.206Z,21.50
2019-04-30T23:22:37.106Z,19.20
2019-04-30T23:25:06.179Z,18.00
2019-04-30T23:27:35.094Z,21.97
2019-04-30T23:30:04.374Z,20.40
2019-04-30T23:32:33.326Z,20.43
2019-04-30T23:35:02.153Z,18.63
2019-04-30T23:37:31.001Z,24.53
2019-04-30T23:40:21.601Z,23.23
2019-04-30T23:42:50.606Z,19.43
2019-04-30T23:45:19.425Z,19.10
2019-04-30T23:47:48.359Z,19.53
2019-04-30T23:50:17.432Z,21.33
2019-04-30T23:52:46.441Z,20.20
2019-04-30T23:55:15.501Z,20.10
2019-04-30T23:57:44.506Z,18.40
